Estrella — DJ7286 — position and weather

sailwx.info

Track history (hours):
 
Tides and Currents Weather Stations Pressure Air Temp Water Temp Dewpoint Dewpoint Depression Visibility Wind Speed Wind Dir Waves Ship Positions

Estrella

Last reported at 2018-Feb-18 15:31 UTC. Time now 2018-Feb-23 10:32 UTC.
Position N 14°19' W 060°56'.

Length 15 m.

Type: Sailing vessel. MMSI: 211676770.

Date/timePositionNaut miles runAvg speedWind from/ knotsBaromVisibWave heightAir tempDewpointWater temp
2018-Feb-18 15:31N 14°19' W 060°56'2 7.5
2018-Feb-18 15:17N 14°21' W 060°55'2 7.2
2018-Feb-18 15:00N 14°23' W 060°55'4 6.0
2018-Feb-18 14:18N 14°27' W 060°54'2 0.0
2018-Feb-16 21:00N 14°28' W 060°52'0 0.0
2018-Feb-16 20:06N 14°28' W 060°52'0 0.0
2018-Feb-16 19:45N 14°28' W 060°52'0 0.3
2018-Feb-16 19:14N 14°28' W 060°52'0 0.2
2018-Feb-16 18:54N 14°28' W 060°52'2 2.5
2018-Feb-16 18:02N 14°27' W 060°54'0 3.7
2018-Feb-16 18:00N 14°27' W 060°54'2 3.6
2018-Feb-16 17:29N 14°27' W 060°56'3 5.4
2018-Feb-16 16:59N 14°24' W 060°56'  
Track history (hours):
 
Tides and Currents Weather Stations Pressure Air Temp Water Temp Dewpoint Dewpoint Depression Visibility Wind Speed Wind Dir Waves Ship Positions

Estrella

Last reported at 2018-Feb-18 15:31 UTC. Time now 2018-Feb-23 10:32 UTC.
Position N 14°19' W 060°56'.

Length 15 m.

Type: Sailing vessel. MMSI: 211676770.

Date/timePositionNaut miles runAvg speedWind from/ knotsBaromVisibWave heightAir tempDewpointWater temp
2018-Feb-18 15:31N 14°19' W 060°56'2 7.5
2018-Feb-18 15:17N 14°21' W 060°55'2 7.2
2018-Feb-18 15:00N 14°23' W 060°55'4 6.0
2018-Feb-18 14:18N 14°27' W 060°54'2 0.0
2018-Feb-16 21:00N 14°28' W 060°52'0 0.0
2018-Feb-16 20:06N 14°28' W 060°52'0 0.0
2018-Feb-16 19:45N 14°28' W 060°52'0 0.3
2018-Feb-16 19:14N 14°28' W 060°52'0 0.2
2018-Feb-16 18:54N 14°28' W 060°52'2 2.5
2018-Feb-16 18:02N 14°27' W 060°54'0 3.7
2018-Feb-16 18:00N 14°27' W 060°54'2 3.6
2018-Feb-16 17:29N 14°27' W 060°56'3 5.4
2018-Feb-16 16:59N 14°24' W 060°56'  

Dump ship's entire track history